sensor_id;sensor_type;location;lat;lon;timestamp;P1;durP1;ratioP1;P2;durP2;ratioP2
47715;SDS011;33476;50.984;3.538;2023-03-23T00:00:54;0.93;;;0.22;;
47715;SDS011;33476;50.984;3.538;2023-03-23T00:03:20;2.08;;;0.30;;
47715;SDS011;33476;50.984;3.538;2023-03-23T00:05:47;0.77;;;0.22;;
47715;SDS011;33476;50.984;3.538;2023-03-23T00:08:19;1.27;;;0.40;;
47715;SDS011;33476;50.984;3.538;2023-03-23T00:10:50;1.90;;;0.57;;
47715;SDS011;33476;50.984;3.538;2023-03-23T00:13:22;1.23;;;0.50;;
47715;SDS011;33476;50.984;3.538;2023-03-23T00:15:48;0.98;;;0.30;;
47715;SDS011;33476;50.984;3.538;2023-03-23T00:18:15;1.20;;;0.30;;
47715;SDS011;33476;50.984;3.538;2023-03-23T00:20:54;1.90;;;0.40;;
47715;SDS011;33476;50.984;3.538;2023-03-23T00:23:22;1.48;;;0.20;;
47715;SDS011;33476;50.984;3.538;2023-03-23T00:25:55;1.38;;;0.30;;
47715;SDS011;33476;50.984;3.538;2023-03-23T00:28:25;0.85;;;0.40;;
47715;SDS011;33476;50.984;3.538;2023-03-23T00:31:09;1.10;;;0.55;;
47715;SDS011;33476;50.984;3.538;2023-03-23T00:33:36;0.90;;;0.30;;
47715;SDS011;33476;50.984;3.538;2023-03-23T00:36:08;1.27;;;0.10;;
47715;SDS011;33476;50.984;3.538;2023-03-23T00:38:35;2.95;;;0.40;;
47715;SDS011;33476;50.984;3.538;2023-03-23T00:41:02;1.52;;;0.20;;
47715;SDS011;33476;50.984;3.538;2023-03-23T00:43:28;0.60;;;0.20;;
47715;SDS011;33476;50.984;3.538;2023-03-23T00:45:55;1.02;;;0.30;;
47715;SDS011;33476;50.984;3.538;2023-03-23T00:48:22;5.65;;;0.30;;
47715;SDS011;33476;50.984;3.538;2023-03-23T00:50:49;2.35;;;0.30;;
47715;SDS011;33476;50.984;3.538;2023-03-23T00:53:16;2.70;;;0.30;;
47715;SDS011;33476;50.984;3.538;2023-03-23T00:55:43;0.60;;;0.30;;
47715;SDS011;33476;50.984;3.538;2023-03-23T00:58:12;1.90;;;0.20;;
47715;SDS011;33476;50.984;3.538;2023-03-23T01:00:39;1.05;;;0.30;;
47715;SDS011;33476;50.984;3.538;2023-03-23T01:03:05;0.82;;;0.10;;
47715;SDS011;33476;50.984;3.538;2023-03-23T01:05:35;0.60;;;0.10;;
47715;SDS011;33476;50.984;3.538;2023-03-23T01:08:01;2.00;;;0.20;;
47715;SDS011;33476;50.984;3.538;2023-03-23T01:10:27;1.45;;;0.20;;
47715;SDS011;33476;50.984;3.538;2023-03-23T01:12:53;0.40;;;0.10;;
47715;SDS011;33476;50.984;3.538;2023-03-23T01:15:19;0.50;;;0.10;;
47715;SDS011;33476;50.984;3.538;2023-03-23T01:17:45;1.02;;;0.32;;
47715;SDS011;33476;50.984;3.538;2023-03-23T01:20:11;0.95;;;0.30;;
47715;SDS011;33476;50.984;3.538;2023-03-23T01:22:39;0.80;;;0.30;;
47715;SDS011;33476;50.984;3.538;2023-03-23T01:25:05;1.85;;;0.40;;
47715;SDS011;33476;50.984;3.538;2023-03-23T01:27:31;0.73;;;0.20;;
47715;SDS011;33476;50.984;3.538;2023-03-23T01:29:57;2.25;;;0.20;;
47715;SDS011;33476;50.984;3.538;2023-03-23T01:32:22;2.83;;;0.28;;
47715;SDS011;33476;50.984;3.538;2023-03-23T01:34:47;2.28;;;0.40;;
47715;SDS011;33476;50.984;3.538;2023-03-23T01:37:13;2.50;;;0.17;;
47715;SDS011;33476;50.984;3.538;2023-03-23T01:39:40;0.85;;;0.20;;
47715;SDS011;33476;50.984;3.538;2023-03-23T01:42:07;1.58;;;0.20;;
47715;SDS011;33476;50.984;3.538;2023-03-23T01:46:59;1.20;;;0.10;;
47715;SDS011;33476;50.984;3.538;2023-03-23T01:49:25;1.77;;;0.30;;
47715;SDS011;33476;50.984;3.538;2023-03-23T01:51:59;3.40;;;0.13;;
47715;SDS011;33476;50.984;3.538;2023-03-23T01:54:27;2.22;;;0.20;;
47715;SDS011;33476;50.984;3.538;2023-03-23T01:57:02;1.58;;;0.20;;
47715;SDS011;33476;50.984;3.538;2023-03-23T01:59:31;4.38;;;0.20;;
47715;SDS011;33476;50.984;3.538;2023-03-23T02:01:58;0.50;;;0.10;;
47715;SDS011;33476;50.984;3.538;2023-03-23T02:04:25;2.58;;;0.20;;
47715;SDS011;33476;50.984;3.538;2023-03-23T02:06:52;0.80;;;0.10;;
47715;SDS011;33476;50.984;3.538;2023-03-23T02:09:19;2.03;;;0.20;;
47715;SDS011;33476;50.984;3.538;2023-03-23T02:11:45;1.38;;;0.20;;
47715;SDS011;33476;50.984;3.538;2023-03-23T02:14:14;0.43;;;0.17;;
47715;SDS011;33476;50.984;3.538;2023-03-23T02:16:43;4.35;;;0.30;;
47715;SDS011;33476;50.984;3.538;2023-03-23T02:22:12;1.17;;;0.10;;
47715;SDS011;33476;50.984;3.538;2023-03-23T02:25:16;3.10;;;0.40;;
47715;SDS011;33476;50.984;3.538;2023-03-23T02:35:49;1.98;;;0.20;;
47715;SDS011;33476;50.984;3.538;2023-03-23T02:38:18;4.50;;;0.20;;
47715;SDS011;33476;50.984;3.538;2023-03-23T02:40:49;1.00;;;0.20;;
47715;SDS011;33476;50.984;3.538;2023-03-23T02:43:20;3.25;;;0.20;;
47715;SDS011;33476;50.984;3.538;2023-03-23T02:45:47;4.93;;;0.25;;
47715;SDS011;33476;50.984;3.538;2023-03-23T02:48:16;3.67;;;0.40;;
47715;SDS011;33476;50.984;3.538;2023-03-23T02:50:45;4.13;;;0.35;;
47715;SDS011;33476;50.984;3.538;2023-03-23T02:53:15;3.65;;;0.10;;
47715;SDS011;33476;50.984;3.538;2023-03-23T02:55:43;6.03;;;0.30;;
47715;SDS011;33476;50.984;3.538;2023-03-23T02:58:11;3.05;;;0.30;;
47715;SDS011;33476;50.984;3.538;2023-03-23T03:00:37;0.80;;;0.20;;
47715;SDS011;33476;50.984;3.538;2023-03-23T03:03:03;1.95;;;0.30;;
47715;SDS011;33476;50.984;3.538;2023-03-23T03:08:13;4.55;;;0.10;;
47715;SDS011;33476;50.984;3.538;2023-03-23T03:10:42;1.05;;;0.10;;
47715;SDS011;33476;50.984;3.538;2023-03-23T03:13:14;5.20;;;0.40;;
47715;SDS011;33476;50.984;3.538;2023-03-23T03:18:39;0.77;;;0.20;;
47715;SDS011;33476;50.984;3.538;2023-03-23T03:21:10;2.15;;;0.17;;
47715;SDS011;33476;50.984;3.538;2023-03-23T03:23:39;1.50;;;0.17;;
47715;SDS011;33476;50.984;3.538;2023-03-23T03:26:09;1.77;;;0.38;;
47715;SDS011;33476;50.984;3.538;2023-03-23T03:28:37;1.90;;;0.17;;
47715;SDS011;33476;50.984;3.538;2023-03-23T03:31:02;1.67;;;0.30;;
47715;SDS011;33476;50.984;3.538;2023-03-23T03:33:30;1.38;;;0.10;;
47715;SDS011;33476;50.984;3.538;2023-03-23T03:35:57;2.15;;;0.35;;
47715;SDS011;33476;50.984;3.538;2023-03-23T03:38:25;1.33;;;0.15;;
47715;SDS011;33476;50.984;3.538;2023-03-23T03:40:51;0.55;;;0.20;;
47715;SDS011;33476;50.984;3.538;2023-03-23T03:43:19;1.42;;;0.52;;
47715;SDS011;33476;50.984;3.538;2023-03-23T03:45:44;2.28;;;0.20;;
47715;SDS011;33476;50.984;3.538;2023-03-23T03:48:10;3.75;;;0.30;;
47715;SDS011;33476;50.984;3.538;2023-03-23T03:50:35;2.65;;;0.25;;
47715;SDS011;33476;50.984;3.538;2023-03-23T03:53:01;3.80;;;0.15;;
47715;SDS011;33476;50.984;3.538;2023-03-23T03:55:26;0.70;;;0.22;;
47715;SDS011;33476;50.984;3.538;2023-03-23T03:57:52;7.18;;;0.35;;
47715;SDS011;33476;50.984;3.538;2023-03-23T04:00:19;1.58;;;0.30;;
47715;SDS011;33476;50.984;3.538;2023-03-23T04:02:46;0.50;;;0.20;;
47715;SDS011;33476;50.984;3.538;2023-03-23T04:05:15;0.88;;;0.30;;
47715;SDS011;33476;50.984;3.538;2023-03-23T04:07:41;2.40;;;0.20;;
47715;SDS011;33476;50.984;3.538;2023-03-23T04:10:07;2.35;;;0.30;;
47715;SDS011;33476;50.984;3.538;2023-03-23T04:12:36;3.15;;;0.20;;
47715;SDS011;33476;50.984;3.538;2023-03-23T04:15:01;3.92;;;0.30;;
47715;SDS011;33476;50.984;3.538;2023-03-23T04:17:28;3.15;;;0.30;;
47715;SDS011;33476;50.984;3.538;2023-03-23T04:19:54;1.70;;;0.40;;
47715;SDS011;33476;50.984;3.538;2023-03-23T04:22:22;4.68;;;0.52;;
47715;SDS011;33476;50.984;3.538;2023-03-23T04:24:49;3.20;;;0.30;;
47715;SDS011;33476;50.984;3.538;2023-03-23T04:27:16;2.42;;;0.20;;
47715;SDS011;33476;50.984;3.538;2023-03-23T04:29:42;2.67;;;0.20;;
47715;SDS011;33476;50.984;3.538;2023-03-23T04:32:07;7.03;;;0.40;;
47715;SDS011;33476;50.984;3.538;2023-03-23T04:34:32;8.77;;;0.52;;
47715;SDS011;33476;50.984;3.538;2023-03-23T04:37:00;2.83;;;0.32;;
47715;SDS011;33476;50.984;3.538;2023-03-23T04:39:25;2.90;;;0.30;;
47715;SDS011;33476;50.984;3.538;2023-03-23T04:41:53;3.78;;;0.30;;
47715;SDS011;33476;50.984;3.538;2023-03-23T04:44:19;2.17;;;0.47;;
47715;SDS011;33476;50.984;3.538;2023-03-23T04:46:46;4.00;;;0.40;;
47715;SDS011;33476;50.984;3.538;2023-03-23T04:49:14;5.65;;;0.45;;
47715;SDS011;33476;50.984;3.538;2023-03-23T04:51:45;5.10;;;0.43;;
47715;SDS011;33476;50.984;3.538;2023-03-23T04:54:11;6.22;;;0.35;;
47715;SDS011;33476;50.984;3.538;2023-03-23T04:56:37;1.90;;;0.35;;
47715;SDS011;33476;50.984;3.538;2023-03-23T04:59:03;1.80;;;0.28;;
47715;SDS011;33476;50.984;3.538;2023-03-23T05:01:28;2.00;;;0.50;;
47715;SDS011;33476;50.984;3.538;2023-03-23T05:03:54;5.82;;;0.63;;
47715;SDS011;33476;50.984;3.538;2023-03-23T05:06:19;6.75;;;0.93;;
47715;SDS011;33476;50.984;3.538;2023-03-23T05:08:45;2.10;;;0.40;;
47715;SDS011;33476;50.984;3.538;2023-03-23T05:11:10;4.50;;;0.60;;
47715;SDS011;33476;50.984;3.538;2023-03-23T05:13:36;6.00;;;0.40;;
47715;SDS011;33476;50.984;3.538;2023-03-23T05:16:05;2.85;;;0.45;;
47715;SDS011;33476;50.984;3.538;2023-03-23T05:18:31;2.70;;;0.35;;
47715;SDS011;33476;50.984;3.538;2023-03-23T05:21:00;3.65;;;0.30;;
47715;SDS011;33476;50.984;3.538;2023-03-23T05:23:27;4.28;;;0.45;;
47715;SDS011;33476;50.984;3.538;2023-03-23T05:25:55;4.63;;;0.50;;
47715;SDS011;33476;50.984;3.538;2023-03-23T05:28:25;3.70;;;0.20;;
47715;SDS011;33476;50.984;3.538;2023-03-23T05:30:55;4.60;;;0.50;;
47715;SDS011;33476;50.984;3.538;2023-03-23T05:33:21;4.90;;;0.30;;
47715;SDS011;33476;50.984;3.538;2023-03-23T05:35:47;7.05;;;0.10;;
47715;SDS011;33476;50.984;3.538;2023-03-23T05:38:12;1.92;;;0.30;;
47715;SDS011;33476;50.984;3.538;2023-03-23T05:40:39;1.45;;;0.20;;
47715;SDS011;33476;50.984;3.538;2023-03-23T05:43:06;3.60;;;0.40;;
47715;SDS011;33476;50.984;3.538;2023-03-23T05:45:32;3.78;;;0.30;;
47715;SDS011;33476;50.984;3.538;2023-03-23T05:47:57;2.85;;;0.38;;
47715;SDS011;33476;50.984;3.538;2023-03-23T05:50:22;4.15;;;0.28;;
47715;SDS011;33476;50.984;3.538;2023-03-23T05:52:47;2.25;;;0.10;;
47715;SDS011;33476;50.984;3.538;2023-03-23T05:55:13;1.83;;;0.20;;
47715;SDS011;33476;50.984;3.538;2023-03-23T05:57:40;3.38;;;0.22;;
47715;SDS011;33476;50.984;3.538;2023-03-23T06:00:05;1.88;;;0.10;;
47715;SDS011;33476;50.984;3.538;2023-03-23T06:02:44;4.57;;;0.20;;
47715;SDS011;33476;50.984;3.538;2023-03-23T06:05:11;2.28;;;0.10;;
47715;SDS011;33476;50.984;3.538;2023-03-23T06:07:36;5.18;;;0.38;;
47715;SDS011;33476;50.984;3.538;2023-03-23T06:10:03;2.17;;;0.10;;
47715;SDS011;33476;50.984;3.538;2023-03-23T06:12:32;0.82;;;0.20;;
47715;SDS011;33476;50.984;3.538;2023-03-23T06:14:57;2.33;;;0.10;;
47715;SDS011;33476;50.984;3.538;2023-03-23T06:17:23;2.28;;;0.30;;
47715;SDS011;33476;50.984;3.538;2023-03-23T06:19:49;2.13;;;0.40;;
47715;SDS011;33476;50.984;3.538;2023-03-23T06:22:15;5.07;;;0.28;;
47715;SDS011;33476;50.984;3.538;2023-03-23T06:24:41;7.50;;;0.32;;
47715;SDS011;33476;50.984;3.538;2023-03-23T06:27:07;1.63;;;0.15;;
47715;SDS011;33476;50.984;3.538;2023-03-23T06:29:34;2.55;;;0.20;;
47715;SDS011;33476;50.984;3.538;2023-03-23T06:32:00;3.92;;;0.30;;
47715;SDS011;33476;50.984;3.538;2023-03-23T06:34:27;2.63;;;0.28;;
47715;SDS011;33476;50.984;3.538;2023-03-23T06:36:53;2.88;;;0.32;;
47715;SDS011;33476;50.984;3.538;2023-03-23T06:39:18;2.45;;;0.13;;
47715;SDS011;33476;50.984;3.538;2023-03-23T06:41:44;4.00;;;0.30;;
47715;SDS011;33476;50.984;3.538;2023-03-23T06:44:09;4.68;;;0.50;;
47715;SDS011;33476;50.984;3.538;2023-03-23T06:46:38;2.90;;;0.20;;
47715;SDS011;33476;50.984;3.538;2023-03-23T06:49:05;2.42;;;0.30;;
47715;SDS011;33476;50.984;3.538;2023-03-23T06:51:30;2.03;;;0.55;;
47715;SDS011;33476;50.984;3.538;2023-03-23T06:53:56;1.63;;;0.20;;
47715;SDS011;33476;50.984;3.538;2023-03-23T06:56:22;2.55;;;0.32;;
47715;SDS011;33476;50.984;3.538;2023-03-23T06:58:48;3.05;;;0.30;;
47715;SDS011;33476;50.984;3.538;2023-03-23T07:01:13;4.68;;;0.20;;
47715;SDS011;33476;50.984;3.538;2023-03-23T07:03:40;5.63;;;0.40;;
47715;SDS011;33476;50.984;3.538;2023-03-23T07:06:06;3.80;;;0.40;;
47715;SDS011;33476;50.984;3.538;2023-03-23T07:08:33;3.67;;;0.20;;
47715;SDS011;33476;50.984;3.538;2023-03-23T07:10:58;2.90;;;0.60;;
47715;SDS011;33476;50.984;3.538;2023-03-23T07:13:24;4.72;;;0.60;;
47715;SDS011;33476;50.984;3.538;2023-03-23T07:15:50;3.40;;;0.30;;
47715;SDS011;33476;50.984;3.538;2023-03-23T07:18:16;4.45;;;0.20;;
47715;SDS011;33476;50.984;3.538;2023-03-23T07:20:41;3.25;;;0.30;;
47715;SDS011;33476;50.984;3.538;2023-03-23T07:23:07;4.40;;;0.40;;
47715;SDS011;33476;50.984;3.538;2023-03-23T07:25:33;3.08;;;0.20;;
47715;SDS011;33476;50.984;3.538;2023-03-23T07:28:01;3.40;;;0.30;;
47715;SDS011;33476;50.984;3.538;2023-03-23T07:30:28;4.47;;;0.20;;
47715;SDS011;33476;50.984;3.538;2023-03-23T07:32:55;6.63;;;0.50;;
47715;SDS011;33476;50.984;3.538;2023-03-23T07:35:23;2.67;;;0.30;;
47715;SDS011;33476;50.984;3.538;2023-03-23T07:37:50;2.28;;;0.20;;
47715;SDS011;33476;50.984;3.538;2023-03-23T07:40:17;1.63;;;0.30;;
47715;SDS011;33476;50.984;3.538;2023-03-23T07:42:46;2.95;;;0.20;;
47715;SDS011;33476;50.984;3.538;2023-03-23T07:45:17;2.72;;;0.30;;
47715;SDS011;33476;50.984;3.538;2023-03-23T07:47:42;3.10;;;0.32;;
47715;SDS011;33476;50.984;3.538;2023-03-23T07:50:08;1.25;;;0.20;;
47715;SDS011;33476;50.984;3.538;2023-03-23T07:52:34;2.83;;;0.40;;
47715;SDS011;33476;50.984;3.538;2023-03-23T07:55:01;3.58;;;0.20;;
47715;SDS011;33476;50.984;3.538;2023-03-23T07:57:28;1.15;;;0.30;;
47715;SDS011;33476;50.984;3.538;2023-03-23T07:59:54;3.45;;;0.20;;
47715;SDS011;33476;50.984;3.538;2023-03-23T08:02:19;1.15;;;0.10;;
47715;SDS011;33476;50.984;3.538;2023-03-23T08:04:44;2.22;;;0.13;;
47715;SDS011;33476;50.984;3.538;2023-03-23T08:07:10;2.80;;;0.13;;
47715;SDS011;33476;50.984;3.538;2023-03-23T08:09:37;4.30;;;0.20;;
47715;SDS011;33476;50.984;3.538;2023-03-23T08:12:03;5.00;;;0.20;;
47715;SDS011;33476;50.984;3.538;2023-03-23T08:14:29;3.22;;;0.20;;
47715;SDS011;33476;50.984;3.538;2023-03-23T08:16:55;4.50;;;0.55;;
47715;SDS011;33476;50.984;3.538;2023-03-23T08:19:21;4.32;;;0.30;;
47715;SDS011;33476;50.984;3.538;2023-03-23T08:21:47;2.58;;;0.20;;
47715;SDS011;33476;50.984;3.538;2023-03-23T08:24:13;3.50;;;0.30;;
47715;SDS011;33476;50.984;3.538;2023-03-23T08:26:39;3.83;;;0.60;;
47715;SDS011;33476;50.984;3.538;2023-03-23T08:29:05;3.55;;;0.30;;
47715;SDS011;33476;50.984;3.538;2023-03-23T08:31:30;3.83;;;0.50;;
47715;SDS011;33476;50.984;3.538;2023-03-23T08:33:58;7.10;;;0.25;;
47715;SDS011;33476;50.984;3.538;2023-03-23T08:36:23;3.42;;;0.55;;
47715;SDS011;33476;50.984;3.538;2023-03-23T08:38:49;4.15;;;0.30;;
47715;SDS011;33476;50.984;3.538;2023-03-23T08:41:16;4.65;;;0.55;;
47715;SDS011;33476;50.984;3.538;2023-03-23T08:43:42;5.97;;;0.52;;
47715;SDS011;33476;50.984;3.538;2023-03-23T08:46:08;3.85;;;0.52;;
47715;SDS011;33476;50.984;3.538;2023-03-23T08:48:36;3.80;;;0.50;;
47715;SDS011;33476;50.984;3.538;2023-03-23T08:51:03;4.65;;;0.20;;
47715;SDS011;33476;50.984;3.538;2023-03-23T08:53:30;3.90;;;0.30;;
47715;SDS011;33476;50.984;3.538;2023-03-23T08:55:56;8.23;;;0.70;;
47715;SDS011;33476;50.984;3.538;2023-03-23T08:58:27;1.58;;;0.35;;
47715;SDS011;33476;50.984;3.538;2023-03-23T09:00:53;2.47;;;0.30;;
47715;SDS011;33476;50.984;3.538;2023-03-23T09:03:18;0.98;;;0.10;;
47715;SDS011;33476;50.984;3.538;2023-03-23T09:05:44;1.13;;;0.30;;
47715;SDS011;33476;50.984;3.538;2023-03-23T09:08:10;2.17;;;0.20;;
47715;SDS011;33476;50.984;3.538;2023-03-23T09:10:37;3.58;;;0.70;;
47715;SDS011;33476;50.984;3.538;2023-03-23T09:13:05;1.15;;;0.15;;
47715;SDS011;33476;50.984;3.538;2023-03-23T09:15:31;4.50;;;0.20;;
47715;SDS011;33476;50.984;3.538;2023-03-23T09:17:57;4.13;;;0.30;;
47715;SDS011;33476;50.984;3.538;2023-03-23T09:20:24;2.25;;;0.15;;
47715;SDS011;33476;50.984;3.538;2023-03-23T09:22:52;2.42;;;0.38;;
47715;SDS011;33476;50.984;3.538;2023-03-23T09:25:20;2.08;;;0.20;;
47715;SDS011;33476;50.984;3.538;2023-03-23T09:27:59;0.85;;;0.10;;
47715;SDS011;33476;50.984;3.538;2023-03-23T09:30:26;2.58;;;0.43;;
47715;SDS011;33476;50.984;3.538;2023-03-23T09:32:53;2.63;;;0.20;;
47715;SDS011;33476;50.984;3.538;2023-03-23T09:35:19;1.52;;;0.20;;
47715;SDS011;33476;50.984;3.538;2023-03-23T09:37:46;2.53;;;0.25;;
47715;SDS011;33476;50.984;3.538;2023-03-23T09:40:15;2.13;;;0.20;;
47715;SDS011;33476;50.984;3.538;2023-03-23T09:42:49;3.08;;;0.40;;
47715;SDS011;33476;50.984;3.538;2023-03-23T09:45:32;4.03;;;0.30;;
47715;SDS011;33476;50.984;3.538;2023-03-23T09:50:50;1.35;;;0.28;;
47715;SDS011;33476;50.984;3.538;2023-03-23T09:53:24;2.47;;;0.35;;
47715;SDS011;33476;50.984;3.538;2023-03-23T09:56:00;4.15;;;0.20;;
47715;SDS011;33476;50.984;3.538;2023-03-23T09:58:30;4.22;;;0.50;;
47715;SDS011;33476;50.984;3.538;2023-03-23T10:01:02;1.20;;;0.10;;
47715;SDS011;33476;50.984;3.538;2023-03-23T10:03:39;7.38;;;0.55;;
47715;SDS011;33476;50.984;3.538;2023-03-23T10:06:10;3.80;;;0.20;;
47715;SDS011;33476;50.984;3.538;2023-03-23T10:08:43;5.53;;;0.57;;
47715;SDS011;33476;50.984;3.538;2023-03-23T10:11:23;6.78;;;0.63;;
47715;SDS011;33476;50.984;3.538;2023-03-23T10:17:00;2.63;;;0.50;;
47715;SDS011;33476;50.984;3.538;2023-03-23T10:19:57;2.58;;;0.38;;
47715;SDS011;33476;50.984;3.538;2023-03-23T10:22:46;4.57;;;0.40;;
47715;SDS011;33476;50.984;3.538;2023-03-23T10:25:19;5.47;;;0.40;;
47715;SDS011;33476;50.984;3.538;2023-03-23T10:28:05;5.50;;;0.40;;
47715;SDS011;33476;50.984;3.538;2023-03-23T10:30:45;5.55;;;0.45;;
47715;SDS011;33476;50.984;3.538;2023-03-23T10:33:24;8.13;;;0.80;;
47715;SDS011;33476;50.984;3.538;2023-03-23T10:36:03;4.03;;;0.88;;
47715;SDS011;33476;50.984;3.538;2023-03-23T10:38:35;6.13;;;0.70;;
47715;SDS011;33476;50.984;3.538;2023-03-23T10:41:11;3.92;;;0.77;;
47715;SDS011;33476;50.984;3.538;2023-03-23T10:43:39;4.78;;;0.98;;
47715;SDS011;33476;50.984;3.538;2023-03-23T10:46:18;6.97;;;1.23;;
47715;SDS011;33476;50.984;3.538;2023-03-23T10:48:54;7.97;;;0.80;;
47715;SDS011;33476;50.984;3.538;2023-03-23T10:51:27;7.63;;;0.75;;
47715;SDS011;33476;50.984;3.538;2023-03-23T10:53:59;3.70;;;0.40;;
47715;SDS011;33476;50.984;3.538;2023-03-23T10:58:52;3.63;;;0.88;;
47715;SDS011;33476;50.984;3.538;2023-03-23T11:01:18;7.50;;;0.38;;
47715;SDS011;33476;50.984;3.538;2023-03-23T11:03:47;6.45;;;0.60;;
47715;SDS011;33476;50.984;3.538;2023-03-23T11:06:22;3.90;;;0.63;;
47715;SDS011;33476;50.984;3.538;2023-03-23T11:08:57;5.82;;;0.60;;
47715;SDS011;33476;50.984;3.538;2023-03-23T11:11:38;7.32;;;0.90;;
47715;SDS011;33476;50.984;3.538;2023-03-23T11:14:50;6.63;;;0.47;;
47715;SDS011;33476;50.984;3.538;2023-03-23T11:19:32;5.72;;;0.50;;
47715;SDS011;33476;50.984;3.538;2023-03-23T11:24:30;5.70;;;0.70;;
47715;SDS011;33476;50.984;3.538;2023-03-23T11:27:08;6.38;;;1.00;;
47715;SDS011;33476;50.984;3.538;2023-03-23T11:29:34;6.90;;;0.50;;
47715;SDS011;33476;50.984;3.538;2023-03-23T11:32:06;8.35;;;0.80;;
47715;SDS011;33476;50.984;3.538;2023-03-23T11:34:39;6.63;;;0.68;;
47715;SDS011;33476;50.984;3.538;2023-03-23T11:37:14;3.78;;;0.63;;
47715;SDS011;33476;50.984;3.538;2023-03-23T11:39:48;3.20;;;0.52;;
47715;SDS011;33476;50.984;3.538;2023-03-23T11:42:21;8.75;;;0.93;;
47715;SDS011;33476;50.984;3.538;2023-03-23T11:44:48;5.50;;;0.63;;
47715;SDS011;33476;50.984;3.538;2023-03-23T11:50:18;6.70;;;0.63;;
47715;SDS011;33476;50.984;3.538;2023-03-23T11:55:36;9.77;;;1.23;;
47715;SDS011;33476;50.984;3.538;2023-03-23T11:58:16;8.68;;;0.90;;
47715;SDS011;33476;50.984;3.538;2023-03-23T12:00:49;4.75;;;0.88;;
47715;SDS011;33476;50.984;3.538;2023-03-23T12:03:20;7.25;;;0.88;;
47715;SDS011;33476;50.984;3.538;2023-03-23T12:05:55;4.18;;;0.63;;
47715;SDS011;33476;50.984;3.538;2023-03-23T12:08:45;8.30;;;0.57;;
47715;SDS011;33476;50.984;3.538;2023-03-23T12:14:33;6.60;;;0.90;;
47715;SDS011;33476;50.984;3.538;2023-03-23T12:17:15;2.83;;;0.63;;
47715;SDS011;33476;50.984;3.538;2023-03-23T12:20:01;6.47;;;0.60;;
47715;SDS011;33476;50.984;3.538;2023-03-23T12:25:38;5.93;;;0.68;;
47715;SDS011;33476;50.984;3.538;2023-03-23T12:36:51;7.47;;;0.93;;
47715;SDS011;33476;50.984;3.538;2023-03-23T12:44:53;7.53;;;1.05;;
47715;SDS011;33476;50.984;3.538;2023-03-23T12:47:40;7.20;;;0.80;;
47715;SDS011;33476;50.984;3.538;2023-03-23T12:50:23;7.85;;;0.80;;
47715;SDS011;33476;50.984;3.538;2023-03-23T12:53:14;10.70;;;0.95;;
47715;SDS011;33476;50.984;3.538;2023-03-23T12:55:44;9.20;;;1.60;;
47715;SDS011;33476;50.984;3.538;2023-03-23T12:58:19;7.47;;;1.33;;
47715;SDS011;33476;50.984;3.538;2023-03-23T13:06:24;9.35;;;0.93;;
47715;SDS011;33476;50.984;3.538;2023-03-23T13:11:36;8.57;;;0.70;;
47715;SDS011;33476;50.984;3.538;2023-03-23T13:16:49;6.72;;;0.77;;
47715;SDS011;33476;50.984;3.538;2023-03-23T13:20:05;8.80;;;1.20;;
47715;SDS011;33476;50.984;3.538;2023-03-23T13:22:15;7.95;;;1.10;;
47715;SDS011;33476;50.984;3.538;2023-03-23T13:24:57;5.40;;;0.55;;
47715;SDS011;33476;50.984;3.538;2023-03-23T13:27:26;6.10;;;1.00;;
47715;SDS011;33476;50.984;3.538;2023-03-23T13:29:54;5.95;;;1.15;;
47715;SDS011;33476;50.984;3.538;2023-03-23T13:32:21;8.10;;;0.98;;
47715;SDS011;33476;50.984;3.538;2023-03-23T13:34:56;8.57;;;0.90;;
47715;SDS011;33476;50.984;3.538;2023-03-23T13:37:23;4.07;;;0.52;;
47715;SDS011;33476;50.984;3.538;2023-03-23T13:39:57;2.67;;;0.70;;
47715;SDS011;33476;50.984;3.538;2023-03-23T13:42:50;9.32;;;0.70;;
47715;SDS011;33476;50.984;3.538;2023-03-23T13:53:26;8.27;;;0.60;;
47715;SDS011;33476;50.984;3.538;2023-03-23T13:56:59;5.85;;;0.57;;
47715;SDS011;33476;50.984;3.538;2023-03-23T13:59:05;5.65;;;0.88;;
47715;SDS011;33476;50.984;3.538;2023-03-23T14:01:34;8.18;;;0.70;;
47715;SDS011;33476;50.984;3.538;2023-03-23T14:04:04;4.78;;;0.47;;
47715;SDS011;33476;50.984;3.538;2023-03-23T14:06:35;9.52;;;1.05;;
47715;SDS011;33476;50.984;3.538;2023-03-23T14:09:06;4.57;;;0.60;;
47715;SDS011;33476;50.984;3.538;2023-03-23T14:12:41;9.57;;;0.68;;
47715;SDS011;33476;50.984;3.538;2023-03-23T14:15:01;7.47;;;0.88;;
47715;SDS011;33476;50.984;3.538;2023-03-23T14:17:30;8.13;;;0.80;;
47715;SDS011;33476;50.984;3.538;2023-03-23T14:20:05;4.00;;;0.68;;
47715;SDS011;33476;50.984;3.538;2023-03-23T14:22:32;4.25;;;0.52;;
47715;SDS011;33476;50.984;3.538;2023-03-23T14:25:00;3.90;;;0.80;;
47715;SDS011;33476;50.984;3.538;2023-03-23T14:27:34;4.70;;;0.50;;
47715;SDS011;33476;50.984;3.538;2023-03-23T14:30:01;7.97;;;1.40;;
47715;SDS011;33476;50.984;3.538;2023-03-23T14:32:30;5.50;;;0.73;;
47715;SDS011;33476;50.984;3.538;2023-03-23T14:34:57;4.32;;;0.57;;
47715;SDS011;33476;50.984;3.538;2023-03-23T14:37:24;7.07;;;1.05;;
47715;SDS011;33476;50.984;3.538;2023-03-23T14:39:53;3.78;;;0.55;;
47715;SDS011;33476;50.984;3.538;2023-03-23T14:42:26;5.30;;;0.60;;
47715;SDS011;33476;50.984;3.538;2023-03-23T14:44:54;5.25;;;0.47;;
47715;SDS011;33476;50.984;3.538;2023-03-23T14:47:22;8.32;;;0.77;;
47715;SDS011;33476;50.984;3.538;2023-03-23T14:49:55;6.78;;;0.75;;
47715;SDS011;33476;50.984;3.538;2023-03-23T14:52:23;7.22;;;0.73;;
47715;SDS011;33476;50.984;3.538;2023-03-23T14:54:50;14.23;;;0.98;;
47715;SDS011;33476;50.984;3.538;2023-03-23T14:57:19;3.70;;;0.50;;
47715;SDS011;33476;50.984;3.538;2023-03-23T14:59:52;7.05;;;0.68;;
47715;SDS011;33476;50.984;3.538;2023-03-23T15:04:59;8.23;;;0.70;;
47715;SDS011;33476;50.984;3.538;2023-03-23T15:09:59;4.72;;;0.40;;
47715;SDS011;33476;50.984;3.538;2023-03-23T15:12:27;5.30;;;0.70;;
47715;SDS011;33476;50.984;3.538;2023-03-23T15:14:57;6.03;;;0.95;;
47715;SDS011;33476;50.984;3.538;2023-03-23T15:17:28;4.32;;;0.73;;
47715;SDS011;33476;50.984;3.538;2023-03-23T15:19:56;10.18;;;1.00;;
47715;SDS011;33476;50.984;3.538;2023-03-23T15:22:29;3.33;;;0.57;;
47715;SDS011;33476;50.984;3.538;2023-03-23T15:25:03;10.63;;;0.68;;
47715;SDS011;33476;50.984;3.538;2023-03-23T15:27:34;8.65;;;0.95;;
47715;SDS011;33476;50.984;3.538;2023-03-23T15:32:40;5.75;;;0.70;;
47715;SDS011;33476;50.984;3.538;2023-03-23T15:35:20;7.07;;;0.73;;
47715;SDS011;33476;50.984;3.538;2023-03-23T15:37:57;6.18;;;0.77;;
47715;SDS011;33476;50.984;3.538;2023-03-23T15:40:25;7.57;;;0.85;;
47715;SDS011;33476;50.984;3.538;2023-03-23T15:45:58;9.15;;;1.10;;
47715;SDS011;33476;50.984;3.538;2023-03-23T15:48:31;8.90;;;0.90;;
47715;SDS011;33476;50.984;3.538;2023-03-23T15:51:09;8.20;;;1.40;;
47715;SDS011;33476;50.984;3.538;2023-03-23T15:53:36;8.95;;;0.93;;
47715;SDS011;33476;50.984;3.538;2023-03-23T15:56:03;8.27;;;0.70;;
47715;SDS011;33476;50.984;3.538;2023-03-23T15:58:30;6.13;;;1.02;;
47715;SDS011;33476;50.984;3.538;2023-03-23T16:00:57;12.70;;;0.98;;
47715;SDS011;33476;50.984;3.538;2023-03-23T16:03:26;12.48;;;0.70;;
47715;SDS011;33476;50.984;3.538;2023-03-23T16:05:58;4.28;;;0.77;;
47715;SDS011;33476;50.984;3.538;2023-03-23T16:08:24;8.60;;;1.13;;
47715;SDS011;33476;50.984;3.538;2023-03-23T16:10:50;6.65;;;0.93;;
47715;SDS011;33476;50.984;3.538;2023-03-23T16:13:16;8.27;;;1.02;;
47715;SDS011;33476;50.984;3.538;2023-03-23T16:15:42;4.25;;;0.77;;
47715;SDS011;33476;50.984;3.538;2023-03-23T16:18:19;5.10;;;0.73;;
47715;SDS011;33476;50.984;3.538;2023-03-23T16:20:46;5.80;;;0.68;;
47715;SDS011;33476;50.984;3.538;2023-03-23T16:23:12;2.55;;;0.40;;
47715;SDS011;33476;50.984;3.538;2023-03-23T16:25:38;4.72;;;0.55;;
47715;SDS011;33476;50.984;3.538;2023-03-23T16:28:04;2.78;;;0.68;;
47715;SDS011;33476;50.984;3.538;2023-03-23T16:30:31;4.45;;;0.50;;